sensor_id;sensor_type;location;lat;lon;timestamp;pressure;altitude;pressure_sealevel;temperature;humidity
33265;BME280;31404;53.974;-1.086;2023-02-28T00:00:39;103548.55;;;8.19;78.13
33265;BME280;31404;53.974;-1.086;2023-02-28T00:05:34;103549.24;;;9.35;75.61
33265;BME280;31404;53.974;-1.086;2023-02-28T00:10:35;103547.96;;;9.41;75.29
33265;BME280;31404;53.974;-1.086;2023-02-28T00:15:35;103545.56;;;8.02;78.29
33265;BME280;31404;53.974;-1.086;2023-02-28T00:20:34;103554.97;;;9.03;76.56
33265;BME280;31404;53.974;-1.086;2023-02-28T00:25:35;103559.23;;;9.66;74.94
33265;BME280;31404;53.974;-1.086;2023-02-28T00:30:35;103554.71;;;8.40;79.01
33265;BME280;31404;53.974;-1.086;2023-02-28T00:35:35;103557.50;;;8.28;79.42
33265;BME280;31404;53.974;-1.086;2023-02-28T00:40:34;103553.27;;;8.16;78.78
33265;BME280;31404;53.974;-1.086;2023-02-28T00:45:34;103558.90;;;8.18;79.23
33265;BME280;31404;53.974;-1.086;2023-02-28T00:50:34;103555.75;;;9.70;75.11
33265;BME280;31404;53.974;-1.086;2023-02-28T00:55:34;103550.81;;;9.48;75.12
33265;BME280;31404;53.974;-1.086;2023-02-28T01:00:34;103547.50;;;9.47;74.61
33265;BME280;31404;53.974;-1.086;2023-02-28T01:05:34;103551.15;;;8.18;77.76
33265;BME280;31404;53.974;-1.086;2023-02-28T01:10:34;103555.77;;;7.97;78.34
33265;BME280;31404;53.974;-1.086;2023-02-28T01:15:34;103551.60;;;7.99;79.12
33265;BME280;31404;53.974;-1.086;2023-02-28T01:20:36;103552.68;;;7.74;80.28
33265;BME280;31404;53.974;-1.086;2023-02-28T01:25:34;103562.05;;;6.90;84.46
33265;BME280;31404;53.974;-1.086;2023-02-28T01:30:34;103559.18;;;7.99;80.12
33265;BME280;31404;53.974;-1.086;2023-02-28T01:35:35;103559.31;;;7.96;79.25
33265;BME280;31404;53.974;-1.086;2023-02-28T01:40:35;103558.87;;;8.45;77.33
33265;BME280;31404;53.974;-1.086;2023-02-28T01:45:36;103554.64;;;7.40;78.75
33265;BME280;31404;53.974;-1.086;2023-02-28T01:50:37;103548.28;;;8.18;78.26
33265;BME280;31404;53.974;-1.086;2023-02-28T01:55:35;103546.37;;;7.65;80.09
33265;BME280;31404;53.974;-1.086;2023-02-28T02:00:34;103540.28;;;7.22;81.80
33265;BME280;31404;53.974;-1.086;2023-02-28T02:05:38;103540.46;;;7.35;80.66
33265;BME280;31404;53.974;-1.086;2023-02-28T02:10:36;103542.35;;;7.31;80.88
33265;BME280;31404;53.974;-1.086;2023-02-28T02:45:38;103536.06;;;7.81;79.66
33265;BME280;31404;53.974;-1.086;2023-02-28T02:50:38;103534.10;;;8.12;78.56
33265;BME280;31404;53.974;-1.086;2023-02-28T03:00:37;103534.28;;;6.90;83.91
33265;BME280;31404;53.974;-1.086;2023-02-28T03:05:39;103533.89;;;7.94;81.03
33265;BME280;31404;53.974;-1.086;2023-02-28T03:10:37;103540.26;;;6.66;85.91
33265;BME280;31404;53.974;-1.086;2023-02-28T03:35:37;103538.63;;;7.96;83.43
33265;BME280;31404;53.974;-1.086;2023-02-28T03:45:37;103533.78;;;8.02;82.59
33265;BME280;31404;53.974;-1.086;2023-02-28T03:50:37;103530.50;;;6.99;85.49
33265;BME280;31404;53.974;-1.086;2023-02-28T04:10:35;103531.75;;;7.10;85.40
33265;BME280;31404;53.974;-1.086;2023-02-28T04:15:35;103535.53;;;6.07;91.05
33265;BME280;31404;53.974;-1.086;2023-02-28T04:20:35;103533.91;;;6.74;87.85
33265;BME280;31404;53.974;-1.086;2023-02-28T04:25:35;103531.96;;;6.89;87.47
33265;BME280;31404;53.974;-1.086;2023-02-28T04:30:34;103538.99;;;6.75;89.11
33265;BME280;31404;53.974;-1.086;2023-02-28T04:35:34;103540.75;;;7.09;86.38
33265;BME280;31404;53.974;-1.086;2023-02-28T04:40:35;103542.74;;;6.70;88.89
33265;BME280;31404;53.974;-1.086;2023-02-28T04:45:35;103549.02;;;6.86;88.17
33265;BME280;31404;53.974;-1.086;2023-02-28T04:50:34;103550.34;;;6.25;90.61
33265;BME280;31404;53.974;-1.086;2023-02-28T04:55:34;103550.25;;;6.68;89.06
33265;BME280;31404;53.974;-1.086;2023-02-28T05:00:34;103551.13;;;5.13;95.81
33265;BME280;31404;53.974;-1.086;2023-02-28T05:05:34;103548.76;;;5.33;97.12
33265;BME280;31404;53.974;-1.086;2023-02-28T05:10:35;103547.33;;;4.96;99.45
33265;BME280;31404;53.974;-1.086;2023-02-28T05:15:35;103552.27;;;5.10;99.04
33265;BME280;31404;53.974;-1.086;2023-02-28T05:20:35;103550.80;;;5.86;95.34
33265;BME280;31404;53.974;-1.086;2023-02-28T05:25:35;103553.17;;;6.71;90.24
33265;BME280;31404;53.974;-1.086;2023-02-28T05:30:35;103556.05;;;6.57;90.00
33265;BME280;31404;53.974;-1.086;2023-02-28T05:40:35;103559.76;;;5.62;94.67
33265;BME280;31404;53.974;-1.086;2023-02-28T05:45:35;103558.68;;;6.06;91.51
33265;BME280;31404;53.974;-1.086;2023-02-28T05:50:34;103559.57;;;5.71;92.99
33265;BME280;31404;53.974;-1.086;2023-02-28T05:55:34;103556.24;;;5.30;95.31
33265;BME280;31404;53.974;-1.086;2023-02-28T06:00:34;103554.60;;;6.05;92.05
33265;BME280;31404;53.974;-1.086;2023-02-28T06:05:34;103560.37;;;5.52;94.02
33265;BME280;31404;53.974;-1.086;2023-02-28T06:10:34;103562.91;;;5.32;94.25
33265;BME280;31404;53.974;-1.086;2023-02-28T06:15:35;103556.63;;;5.53;92.85
33265;BME280;31404;53.974;-1.086;2023-02-28T06:20:35;103563.68;;;5.22;92.89
33265;BME280;31404;53.974;-1.086;2023-02-28T06:25:37;103558.67;;;5.32;92.32
33265;BME280;31404;53.974;-1.086;2023-02-28T06:30:34;103560.11;;;5.06;93.07
33265;BME280;31404;53.974;-1.086;2023-02-28T06:35:35;103564.13;;;5.23;93.70
33265;BME280;31404;53.974;-1.086;2023-02-28T06:40:35;103563.00;;;6.75;87.33
33265;BME280;31404;53.974;-1.086;2023-02-28T06:45:34;103566.42;;;6.61;86.58
33265;BME280;31404;53.974;-1.086;2023-02-28T06:50:34;103572.07;;;5.56;90.12
33265;BME280;31404;53.974;-1.086;2023-02-28T06:55:34;103579.40;;;5.36;91.06
33265;BME280;31404;53.974;-1.086;2023-02-28T07:00:35;103583.16;;;5.29;91.98
33265;BME280;31404;53.974;-1.086;2023-02-28T07:05:35;103578.68;;;5.08;92.50
33265;BME280;31404;53.974;-1.086;2023-02-28T07:10:37;103572.45;;;4.92;93.56
33265;BME280;31404;53.974;-1.086;2023-02-28T07:15:36;103576.12;;;4.69;95.69
33265;BME280;31404;53.974;-1.086;2023-02-28T07:20:34;103580.44;;;4.72;95.06
33265;BME280;31404;53.974;-1.086;2023-02-28T07:25:34;103587.17;;;4.87;97.43
33265;BME280;31404;53.974;-1.086;2023-02-28T07:30:34;103589.15;;;3.78;100.00
33265;BME280;31404;53.974;-1.086;2023-02-28T07:35:34;103585.48;;;3.88;100.00
33265;BME280;31404;53.974;-1.086;2023-02-28T07:40:35;103590.11;;;4.24;100.00
33265;BME280;31404;53.974;-1.086;2023-02-28T07:45:34;103594.25;;;5.24;94.93
33265;BME280;31404;53.974;-1.086;2023-02-28T07:50:34;103589.71;;;5.70;94.61
33265;BME280;31404;53.974;-1.086;2023-02-28T07:55:34;103592.58;;;5.39;95.37
33265;BME280;31404;53.974;-1.086;2023-02-28T08:00:34;103589.04;;;5.69;96.69
33265;BME280;31404;53.974;-1.086;2023-02-28T08:10:34;103591.42;;;6.64;92.11
33265;BME280;31404;53.974;-1.086;2023-02-28T08:15:35;103596.88;;;4.90;99.75
33265;BME280;31404;53.974;-1.086;2023-02-28T08:20:35;103599.09;;;5.14;97.79
33265;BME280;31404;53.974;-1.086;2023-02-28T08:25:35;103601.78;;;5.30;96.71
33265;BME280;31404;53.974;-1.086;2023-02-28T08:30:35;103601.74;;;5.42;98.23
33265;BME280;31404;53.974;-1.086;2023-02-28T08:35:36;103600.76;;;4.86;100.00
33265;BME280;31404;53.974;-1.086;2023-02-28T08:40:35;103604.95;;;4.75;100.00
33265;BME280;31404;53.974;-1.086;2023-02-28T08:45:35;103599.10;;;4.67;100.00
33265;BME280;31404;53.974;-1.086;2023-02-28T08:50:35;103599.32;;;5.33;99.81
33265;BME280;31404;53.974;-1.086;2023-02-28T08:55:35;103601.06;;;4.25;100.00
33265;BME280;31404;53.974;-1.086;2023-02-28T09:00:34;103604.33;;;4.44;100.00
33265;BME280;31404;53.974;-1.086;2023-02-28T09:05:34;103606.51;;;3.66;100.00
33265;BME280;31404;53.974;-1.086;2023-02-28T09:10:35;103609.74;;;3.56;100.00
33265;BME280;31404;53.974;-1.086;2023-02-28T09:15:37;103600.72;;;3.85;100.00
33265;BME280;31404;53.974;-1.086;2023-02-28T09:20:37;103612.63;;;3.51;100.00
33265;BME280;31404;53.974;-1.086;2023-02-28T09:25:35;103606.69;;;4.54;100.00
33265;BME280;31404;53.974;-1.086;2023-02-28T09:30:34;103607.31;;;3.76;100.00
33265;BME280;31404;53.974;-1.086;2023-02-28T09:35:34;103606.56;;;4.70;100.00
33265;BME280;31404;53.974;-1.086;2023-02-28T09:40:36;103610.31;;;4.91;100.00
33265;BME280;31404;53.974;-1.086;2023-02-28T09:45:37;103608.34;;;3.80;100.00
33265;BME280;31404;53.974;-1.086;2023-02-28T10:10:38;103619.78;;;3.52;100.00
33265;BME280;31404;53.974;-1.086;2023-02-28T10:15:35;103622.89;;;3.27;100.00
33265;BME280;31404;53.974;-1.086;2023-02-28T10:20:38;103621.13;;;3.78;100.00
33265;BME280;31404;53.974;-1.086;2023-02-28T10:25:37;103616.78;;;3.65;100.00
33265;BME280;31404;53.974;-1.086;2023-02-28T10:30:35;103620.60;;;3.52;100.00
33265;BME280;31404;53.974;-1.086;2023-02-28T10:35:35;103621.77;;;3.56;100.00
33265;BME280;31404;53.974;-1.086;2023-02-28T10:40:35;103625.01;;;3.45;100.00
33265;BME280;31404;53.974;-1.086;2023-02-28T10:45:35;103629.06;;;3.44;100.00
33265;BME280;31404;53.974;-1.086;2023-02-28T10:50:42;103629.00;;;3.60;100.00
33265;BME280;31404;53.974;-1.086;2023-02-28T10:55:34;103617.57;;;3.67;100.00
33265;BME280;31404;53.974;-1.086;2023-02-28T11:00:35;103610.80;;;4.53;100.00
33265;BME280;31404;53.974;-1.086;2023-02-28T11:05:36;103602.97;;;4.57;100.00
33265;BME280;31404;53.974;-1.086;2023-02-28T11:10:35;103598.50;;;4.55;100.00
33265;BME280;31404;53.974;-1.086;2023-02-28T11:15:35;103600.69;;;4.43;100.00
33265;BME280;31404;53.974;-1.086;2023-02-28T11:20:35;103601.42;;;4.62;100.00
33265;BME280;31404;53.974;-1.086;2023-02-28T11:25:38;103599.56;;;4.89;100.00
33265;BME280;31404;53.974;-1.086;2023-02-28T11:30:37;103602.99;;;5.38;100.00
33265;BME280;31404;53.974;-1.086;2023-02-28T11:55:37;103574.05;;;3.70;100.00
33265;BME280;31404;53.974;-1.086;2023-02-28T12:05:38;103565.89;;;4.75;100.00
33265;BME280;31404;53.974;-1.086;2023-02-28T12:30:48;103543.06;;;3.73;100.00
33265;BME280;31404;53.974;-1.086;2023-02-28T12:35:38;103535.81;;;3.98;100.00
33265;BME280;31404;53.974;-1.086;2023-02-28T12:45:40;103543.92;;;4.53;100.00
33265;BME280;31404;53.974;-1.086;2023-02-28T12:50:35;103532.47;;;4.65;100.00
33265;BME280;31404;53.974;-1.086;2023-02-28T13:00:36;103529.39;;;4.52;100.00
33265;BME280;31404;53.974;-1.086;2023-02-28T13:15:40;103529.04;;;3.82;100.00
33265;BME280;31404;53.974;-1.086;2023-02-28T13:20:37;103524.79;;;4.18;100.00
33265;BME280;31404;53.974;-1.086;2023-02-28T13:35:37;103501.54;;;4.23;100.00
33265;BME280;31404;53.974;-1.086;2023-02-28T13:40:34;103493.92;;;5.64;100.00
33265;BME280;31404;53.974;-1.086;2023-02-28T13:45:34;103484.54;;;5.60;100.00
33265;BME280;31404;53.974;-1.086;2023-02-28T13:50:36;103486.01;;;3.87;100.00
33265;BME280;31404;53.974;-1.086;2023-02-28T13:55:37;103482.22;;;3.76;100.00
33265;BME280;31404;53.974;-1.086;2023-02-28T14:05:35;103486.00;;;4.60;100.00
33265;BME280;31404;53.974;-1.086;2023-02-28T14:20:34;103495.04;;;3.03;100.00
33265;BME280;31404;53.974;-1.086;2023-02-28T14:25:57;103495.59;;;3.78;100.00
33265;BME280;31404;53.974;-1.086;2023-02-28T14:40:35;103474.27;;;5.36;100.00
33265;BME280;31404;53.974;-1.086;2023-02-28T14:45:36;103475.72;;;4.07;100.00
33265;BME280;31404;53.974;-1.086;2023-02-28T14:50:36;103477.72;;;3.57;100.00
33265;BME280;31404;53.974;-1.086;2023-02-28T14:55:35;103466.73;;;4.65;100.00
33265;BME280;31404;53.974;-1.086;2023-02-28T15:00:39;103464.72;;;4.61;100.00
33265;BME280;31404;53.974;-1.086;2023-02-28T15:05:35;103468.10;;;4.42;100.00
33265;BME280;31404;53.974;-1.086;2023-02-28T15:10:35;103478.27;;;2.56;100.00
33265;BME280;31404;53.974;-1.086;2023-02-28T15:20:35;103469.66;;;4.06;100.00
33265;BME280;31404;53.974;-1.086;2023-02-28T15:25:35;103464.06;;;3.35;100.00
33265;BME280;31404;53.974;-1.086;2023-02-28T15:30:34;103464.56;;;3.59;100.00
33265;BME280;31404;53.974;-1.086;2023-02-28T15:35:35;103461.32;;;3.74;100.00
33265;BME280;31404;53.974;-1.086;2023-02-28T15:40:38;103468.15;;;4.56;100.00
33265;BME280;31404;53.974;-1.086;2023-02-28T15:45:37;103465.12;;;4.56;100.00
33265;BME280;31404;53.974;-1.086;2023-02-28T15:50:35;103455.45;;;3.64;100.00
33265;BME280;31404;53.974;-1.086;2023-02-28T15:55:36;103473.60;;;4.91;100.00
33265;BME280;31404;53.974;-1.086;2023-02-28T16:00:35;103481.10;;;4.38;100.00
33265;BME280;31404;53.974;-1.086;2023-02-28T16:05:35;103478.77;;;3.73;100.00
33265;BME280;31404;53.974;-1.086;2023-02-28T16:10:35;103481.44;;;4.33;100.00
33265;BME280;31404;53.974;-1.086;2023-02-28T16:20:34;103482.53;;;3.74;100.00
33265;BME280;31404;53.974;-1.086;2023-02-28T16:25:36;103483.99;;;4.80;100.00
33265;BME280;31404;53.974;-1.086;2023-02-28T16:30:34;103484.98;;;5.31;100.00
33265;BME280;31404;53.974;-1.086;2023-02-28T16:35:35;103483.53;;;5.14;100.00
33265;BME280;31404;53.974;-1.086;2023-02-28T16:40:36;103493.55;;;4.62;100.00
33265;BME280;31404;53.974;-1.086;2023-02-28T16:45:35;103489.52;;;4.33;100.00
33265;BME280;31404;53.974;-1.086;2023-02-28T16:50:35;103497.32;;;3.96;100.00
33265;BME280;31404;53.974;-1.086;2023-02-28T16:55:36;103504.41;;;4.81;100.00
33265;BME280;31404;53.974;-1.086;2023-02-28T17:00:34;103511.25;;;4.83;100.00
33265;BME280;31404;53.974;-1.086;2023-02-28T17:05:37;103516.14;;;3.74;100.00
33265;BME280;31404;53.974;-1.086;2023-02-28T17:10:35;103524.94;;;4.82;100.00
33265;BME280;31404;53.974;-1.086;2023-02-28T17:15:36;103520.00;;;4.54;100.00
33265;BME280;31404;53.974;-1.086;2023-02-28T17:20:35;103519.83;;;5.28;100.00
33265;BME280;31404;53.974;-1.086;2023-02-28T17:25:35;103523.04;;;4.19;100.00
33265;BME280;31404;53.974;-1.086;2023-02-28T17:30:35;103525.18;;;3.86;100.00
33265;BME280;31404;53.974;-1.086;2023-02-28T17:35:34;103529.71;;;4.95;100.00
33265;BME280;31404;53.974;-1.086;2023-02-28T17:40:35;103525.33;;;5.84;100.00
33265;BME280;31404;53.974;-1.086;2023-02-28T17:45:35;103524.54;;;6.61;94.31
33265;BME280;31404;53.974;-1.086;2023-02-28T17:50:35;103540.48;;;5.09;100.00
33265;BME280;31404;53.974;-1.086;2023-02-28T17:55:35;103543.01;;;5.62;100.00
33265;BME280;31404;53.974;-1.086;2023-02-28T18:00:34;103536.52;;;6.04;100.00
33265;BME280;31404;53.974;-1.086;2023-02-28T18:05:34;103537.84;;;7.04;96.58
33265;BME280;31404;53.974;-1.086;2023-02-28T18:10:34;103541.86;;;6.01;100.00
33265;BME280;31404;53.974;-1.086;2023-02-28T18:15:34;103549.48;;;6.06;100.00
33265;BME280;31404;53.974;-1.086;2023-02-28T18:20:35;103549.91;;;6.33;98.42
33265;BME280;31404;53.974;-1.086;2023-02-28T18:25:34;103556.76;;;6.61;97.62
33265;BME280;31404;53.974;-1.086;2023-02-28T18:30:36;103552.97;;;5.90;97.57
33265;BME280;31404;53.974;-1.086;2023-02-28T18:35:34;103562.26;;;4.91;100.00
33265;BME280;31404;53.974;-1.086;2023-02-28T18:40:35;103564.06;;;4.36;100.00
33265;BME280;31404;53.974;-1.086;2023-02-28T18:45:35;103567.14;;;3.45;100.00
33265;BME280;31404;53.974;-1.086;2023-02-28T18:50:36;103570.90;;;2.45;100.00
33265;BME280;31404;53.974;-1.086;2023-02-28T18:55:34;103575.94;;;2.67;100.00
33265;BME280;31404;53.974;-1.086;2023-02-28T19:00:35;103568.46;;;3.71;100.00
33265;BME280;31404;53.974;-1.086;2023-02-28T19:05:36;103568.34;;;3.89;100.00
33265;BME280;31404;53.974;-1.086;2023-02-28T19:15:35;103572.89;;;4.77;100.00
33265;BME280;31404;53.974;-1.086;2023-02-28T19:20:35;103582.27;;;5.59;100.00
33265;BME280;31404;53.974;-1.086;2023-02-28T19:30:35;103570.05;;;5.89;100.00
33265;BME280;31404;53.974;-1.086;2023-02-28T19:35:34;103574.25;;;5.40;100.00
33265;BME280;31404;53.974;-1.086;2023-02-28T19:40:35;103572.05;;;6.15;98.74
33265;BME280;31404;53.974;-1.086;2023-02-28T19:45:35;103577.04;;;7.08;94.68
33265;BME280;31404;53.974;-1.086;2023-02-28T19:50:35;103578.02;;;6.21;98.81
33265;BME280;31404;53.974;-1.086;2023-02-28T19:55:36;103581.37;;;6.51;97.11
33265;BME280;31404;53.974;-1.086;2023-02-28T20:00:34;103581.18;;;7.08;95.53
33265;BME280;31404;53.974;-1.086;2023-02-28T20:05:34;103576.46;;;6.61;97.50
33265;BME280;31404;53.974;-1.086;2023-02-28T20:10:35;103584.16;;;6.30;98.81
33265;BME280;31404;53.974;-1.086;2023-02-28T20:15:36;103592.88;;;5.64;100.00
33265;BME280;31404;53.974;-1.086;2023-02-28T20:20:35;103596.19;;;6.37;99.73
33265;BME280;31404;53.974;-1.086;2023-02-28T20:30:37;103605.03;;;5.49;100.00
33265;BME280;31404;53.974;-1.086;2023-02-28T20:35:34;103591.14;;;6.18;99.77
33265;BME280;31404;53.974;-1.086;2023-02-28T20:40:35;103589.12;;;6.32;98.27
33265;BME280;31404;53.974;-1.086;2023-02-28T20:45:34;103590.86;;;4.88;100.00
33265;BME280;31404;53.974;-1.086;2023-02-28T20:50:35;103588.41;;;5.90;100.00
33265;BME280;31404;53.974;-1.086;2023-02-28T20:55:34;103585.42;;;5.59;100.00
33265;BME280;31404;53.974;-1.086;2023-02-28T21:00:34;103591.68;;;5.68;100.00
33265;BME280;31404;53.974;-1.086;2023-02-28T21:05:35;103596.86;;;5.45;100.00
33265;BME280;31404;53.974;-1.086;2023-02-28T21:10:34;103592.30;;;4.75;100.00
33265;BME280;31404;53.974;-1.086;2023-02-28T21:15:36;103590.39;;;5.06;100.00
33265;BME280;31404;53.974;-1.086;2023-02-28T21:20:35;103586.29;;;4.95;100.00
33265;BME280;31404;53.974;-1.086;2023-02-28T21:25:35;103580.36;;;5.51;100.00
33265;BME280;31404;53.974;-1.086;2023-02-28T21:30:36;103586.73;;;5.46;100.00
33265;BME280;31404;53.974;-1.086;2023-02-28T21:35:35;103588.59;;;5.79;100.00
33265;BME280;31404;53.974;-1.086;2023-02-28T21:40:35;103585.04;;;7.13;95.58
33265;BME280;31404;53.974;-1.086;2023-02-28T21:45:35;103583.39;;;7.08;94.69
33265;BME280;31404;53.974;-1.086;2023-02-28T21:50:35;103584.13;;;6.89;95.86
33265;BME280;31404;53.974;-1.086;2023-02-28T21:55:35;103590.82;;;6.26;97.15
33265;BME280;31404;53.974;-1.086;2023-02-28T22:00:35;103591.64;;;6.91;93.71
33265;BME280;31404;53.974;-1.086;2023-02-28T22:05:35;103605.74;;;5.58;98.08
33265;BME280;31404;53.974;-1.086;2023-02-28T22:10:35;103603.15;;;6.39;96.28
33265;BME280;31404;53.974;-1.086;2023-02-28T22:15:35;103608.63;;;5.89;99.07
33265;BME280;31404;53.974;-1.086;2023-02-28T22:20:35;103617.10;;;5.84;100.00
33265;BME280;31404;53.974;-1.086;2023-02-28T22:25:36;103614.70;;;5.11;100.00
33265;BME280;31404;53.974;-1.086;2023-02-28T22:30:34;103616.92;;;4.60;100.00
33265;BME280;31404;53.974;-1.086;2023-02-28T22:35:34;103618.66;;;5.88;100.00
33265;BME280;31404;53.974;-1.086;2023-02-28T22:40:34;103621.57;;;5.85;100.00
33265;BME280;31404;53.974;-1.086;2023-02-28T22:45:35;103617.64;;;5.38;100.00
33265;BME280;31404;53.974;-1.086;2023-02-28T22:50:35;103606.17;;;6.31;98.78
33265;BME280;31404;53.974;-1.086;2023-02-28T22:55:35;103601.80;;;6.25;98.69
33265;BME280;31404;53.974;-1.086;2023-02-28T23:00:35;103603.57;;;5.76;99.72
33265;BME280;31404;53.974;-1.086;2023-02-28T23:05:35;103613.11;;;5.66;100.00
33265;BME280;31404;53.974;-1.086;2023-02-28T23:10:35;103606.28;;;7.28;94.26
33265;BME280;31404;53.974;-1.086;2023-02-28T23:15:34;103606.08;;;7.87;89.87
33265;BME280;31404;53.974;-1.086;2023-02-28T23:20:35;103613.83;;;7.36;90.88
33265;BME280;31404;53.974;-1.086;2023-02-28T23:30:36;103611.95;;;7.37;91.99
33265;BME280;31404;53.974;-1.086;2023-02-28T23:35:35;103610.64;;;7.68;88.95
33265;BME280;31404;53.974;-1.086;2023-02-28T23:40:36;103609.57;;;7.09;92.09
33265;BME280;31404;53.974;-1.086;2023-02-28T23:45:35;103614.25;;;6.02;95.48
33265;BME280;31404;53.974;-1.086;2023-02-28T23:50:36;103618.80;;;5.30;98.86
33265;BME280;31404;53.974;-1.086;2023-02-28T23:55:34;103627.26;;;5.28;99.47
